Time,TemperatureF,DewpointF,PressureIn,WindDirection,WindDirectionDegrees,WindSpeedMPH,WindSpeedGustMPH,Humidity,HourlyPrecipIn,Conditions,Clouds,dailyrainin,SolarRadiationWatts/m^2,SoftwareType,DateUTC
2013-01-17 00:33:00,48.0,48.0,-100.00,NE,41,0.0,3.0,99,0.05,,,0.53,0.000000,,2013-01-17 05:33:00,
2013-01-17 00:43:00,48.0,48.0,-100.00,NE,41,0.0,3.0,99,0.05,,,0.53,0.000000,,2013-01-17 05:43:00,
2013-01-17 00:53:00,48.0,48.0,-100.00,NE,41,0.0,3.0,99,0.05,,,0.53,0.000000,,2013-01-17 05:53:00,
2013-01-17 01:03:00,48.0,48.0,-100.00,NE,41,0.0,3.0,99,0.05,,,0.53,0.000000,,2013-01-17 06:03:00,
2013-01-17 01:33:00,48.0,48.0,-100.00,SE,126,1.0,3.0,100,0.02,,,0.53,0.000000,,2013-01-17 06:33:00,
2013-01-17 01:42:00,48.0,48.0,-100.00,SE,126,1.0,3.0,100,0.02,,,0.53,0.000000,,2013-01-17 06:42:00,
2013-01-17 01:53:00,48.0,48.0,-100.00,SE,126,1.0,3.0,100,0.02,,,0.53,0.000000,,2013-01-17 06:53:00,
2013-01-17 02:02:00,48.0,48.0,-100.00,SE,126,1.0,3.0,100,0.02,,,0.53,0.000000,,2013-01-17 07:02:00,
2013-01-17 02:33:00,48.0,48.0,-100.00,NNW,347,2.0,4.0,100,0.00,,,0.50,0.000000,,2013-01-17 07:33:00,
2013-01-17 02:43:00,48.0,48.0,-100.00,NNW,347,2.0,4.0,100,0.00,,,0.50,0.000000,,2013-01-17 07:43:00,
2013-01-17 02:53:00,48.0,48.0,-100.00,NNW,347,2.0,4.0,100,0.00,,,0.50,0.000000,,2013-01-17 07:53:00,
2013-01-17 03:02:00,48.0,48.0,-100.00,NNW,347,2.0,4.0,100,0.00,,,0.50,0.000000,,2013-01-17 08:02:00,
2013-01-17 03:22:00,49.0,49.0,-100.00,NNE,16,0.0,3.0,100,0.02,,,0.52,0.000000,,2013-01-17 08:22:00,
2013-01-17 03:32:00,49.0,49.0,-100.00,NNE,16,0.0,3.0,100,0.02,,,0.52,0.000000,,2013-01-17 08:32:00,
2013-01-17 03:43:00,49.0,49.0,-100.00,NNE,16,0.0,3.0,100,0.02,,,0.52,0.000000,,2013-01-17 08:43:00,
2013-01-17 03:53:00,49.0,49.0,-100.00,NNE,16,0.0,3.0,100,0.02,,,0.52,0.000000,,2013-01-17 08:53:00,
2013-01-17 04:03:00,49.0,49.0,-100.00,NNE,16,0.0,3.0,100,0.02,,,0.52,0.000000,,2013-01-17 09:03:00,
2013-01-17 04:33:00,50.0,50.0,-100.00,NE,48,0.0,4.0,100,0.03,,,0.53,0.000000,,2013-01-17 09:33:00,
2013-01-17 04:43:00,50.0,50.0,-100.00,NE,48,0.0,4.0,100,0.03,,,0.53,0.000000,,2013-01-17 09:43:00,
2013-01-17 04:53:00,50.0,50.0,-100.00,NE,48,0.0,4.0,100,0.03,,,0.53,0.000000,,2013-01-17 09:53:00,
2013-01-17 05:02:00,50.0,50.0,-100.00,NE,48,0.0,4.0,100,0.03,,,0.53,0.000000,,2013-01-17 10:02:00,
2013-01-17 05:33:00,50.0,50.0,-100.00,NE,44,1.0,2.0,100,0.03,,,0.55,0.000000,,2013-01-17 10:33:00,
2013-01-17 05:43:00,50.0,50.0,-100.00,NE,44,1.0,2.0,100,0.03,,,0.55,0.000000,,2013-01-17 10:43:00,
2013-01-17 05:53:00,50.0,50.0,-100.00,NE,44,1.0,2.0,100,0.03,,,0.55,0.000000,,2013-01-17 10:53:00,
2013-01-17 06:03:00,50.0,50.0,-100.00,NE,44,1.0,2.0,100,0.03,,,0.55,0.000000,,2013-01-17 11:03:00,
2013-01-17 06:23:00,50.0,50.0,-100.00,NNE,32,1.0,2.0,100,0.02,,,0.56,0.000000,,2013-01-17 11:23:00,
2013-01-17 06:33:00,50.0,50.0,-100.00,NNE,32,1.0,2.0,100,0.02,,,0.56,0.000000,,2013-01-17 11:33:00,
2013-01-17 06:43:00,50.0,50.0,-100.00,NNE,32,1.0,2.0,100,0.02,,,0.56,0.000000,,2013-01-17 11:43:00,
2013-01-17 06:53:00,50.0,50.0,-100.00,NNE,32,1.0,2.0,100,0.02,,,0.56,0.000000,,2013-01-17 11:53:00,
2013-01-17 07:02:00,50.0,50.0,-100.00,NNE,32,1.0,2.0,100,0.02,,,0.56,0.000000,,2013-01-17 12:02:00,
2013-01-17 07:23:00,50.0,50.0,-100.00,ENE,63,2.0,5.0,100,0.04,,,0.60,0.000000,,2013-01-17 12:23:00,
2013-01-17 07:33:00,50.0,50.0,-100.00,ENE,63,2.0,5.0,100,0.04,,,0.60,0.000000,,2013-01-17 12:33:00,
2013-01-17 07:43:00,50.0,50.0,-100.00,ENE,63,2.0,5.0,100,0.04,,,0.60,0.000000,,2013-01-17 12:43:00,
2013-01-17 07:53:00,50.0,50.0,-100.00,ENE,63,2.0,5.0,100,0.04,,,0.60,0.000000,,2013-01-17 12:53:00,
2013-01-17 08:03:00,50.0,50.0,-100.00,ENE,63,2.0,5.0,100,0.04,,,0.60,0.000000,,2013-01-17 13:03:00,
2013-01-17 08:33:00,49.0,49.0,-100.00,NE,44,2.0,6.0,100,0.04,,,0.63,3.000000,,2013-01-17 13:33:00,
2013-01-17 08:43:00,49.0,49.0,-100.00,NE,44,2.0,6.0,100,0.04,,,0.63,3.000000,,2013-01-17 13:43:00,
2013-01-17 08:53:00,49.0,49.0,-100.00,NE,44,2.0,6.0,100,0.04,,,0.63,3.000000,,2013-01-17 13:53:00,
2013-01-17 09:03:00,49.0,49.0,-100.00,NE,44,2.0,6.0,100,0.04,,,0.63,3.000000,,2013-01-17 14:03:00,
2013-01-17 09:33:00,48.0,48.0,-100.00,ENE,57,2.0,9.0,100,0.05,,,0.50,20.000000,,2013-01-17 14:33:00,
2013-01-17 09:43:00,48.0,48.0,-100.00,ENE,57,2.0,9.0,100,0.05,,,0.50,20.000000,,2013-01-17 14:43:00,
2013-01-17 09:53:00,48.0,48.0,-100.00,ENE,57,2.0,9.0,100,0.05,,,0.50,20.000000,,2013-01-17 14:53:00,
2013-01-17 10:03:00,48.0,48.0,-100.00,ENE,57,2.0,9.0,100,0.05,,,0.50,20.000000,,2013-01-17 15:03:00,
2013-01-17 10:33:00,47.0,46.0,-100.00,NE,42,4.0,10.0,98,0.06,,,0.48,35.000000,,2013-01-17 15:33:00,
2013-01-17 10:43:00,47.0,46.0,-100.00,NE,42,4.0,10.0,98,0.06,,,0.48,35.000000,,2013-01-17 15:43:00,
2013-01-17 10:53:00,47.0,46.0,-100.00,NE,42,4.0,10.0,98,0.06,,,0.48,35.000000,,2013-01-17 15:53:00,
2013-01-17 11:03:00,47.0,46.0,-100.00,NE,42,4.0,10.0,98,0.06,,,0.48,35.000000,,2013-01-17 16:03:00,
2013-01-17 11:34:00,46.0,45.0,-100.00,NE,39,4.0,11.0,98,0.10,,,0.50,52.000000,,2013-01-17 16:34:00,
2013-01-17 11:44:00,46.0,45.0,-100.00,NE,39,4.0,11.0,98,0.10,,,0.50,52.000000,,2013-01-17 16:44:00,
2013-01-17 11:53:00,46.0,45.0,-100.00,NE,39,4.0,11.0,98,0.10,,,0.50,52.000000,,2013-01-17 16:53:00,
2013-01-17 12:03:00,46.0,45.0,-100.00,NE,39,4.0,11.0,98,0.10,,,0.50,52.000000,,2013-01-17 17:03:00,
2013-01-17 12:04:00,45.0,44.0,-100.00,NE,45,4.0,10.0,95,0.10,,,0.58,92.000000,,2013-01-17 17:04:00,
2013-01-17 12:33:00,45.0,44.0,-100.00,NE,45,4.0,10.0,95,0.10,,,0.58,92.000000,,2013-01-17 17:33:00,
2013-01-17 12:43:00,45.0,44.0,-100.00,NE,45,4.0,10.0,95,0.10,,,0.58,92.000000,,2013-01-17 17:43:00,
2013-01-17 12:54:00,45.0,44.0,-100.00,NE,45,4.0,10.0,95,0.10,,,0.58,92.000000,,2013-01-17 17:54:00,
2013-01-17 13:23:00,43.0,41.0,-100.00,NE,48,7.0,15.0,94,0.06,,,0.64,54.000000,,2013-01-17 18:23:00,
2013-01-17 13:34:00,43.0,41.0,-100.00,NE,48,7.0,15.0,94,0.06,,,0.64,54.000000,,2013-01-17 18:34:00,
2013-01-17 13:44:00,43.0,41.0,-100.00,NE,48,7.0,15.0,94,0.06,,,0.64,54.000000,,2013-01-17 18:44:00,
2013-01-17 13:53:00,43.0,41.0,-100.00,NE,48,7.0,15.0,94,0.06,,,0.64,54.000000,,2013-01-17 18:53:00,
2013-01-17 14:03:00,43.0,41.0,-100.00,NE,48,7.0,15.0,94,0.06,,,0.64,54.000000,,2013-01-17 19:03:00,
2013-01-17 14:23:00,41.0,39.0,-100.00,NNE,33,7.0,16.0,94,0.19,,,0.83,49.000000,,2013-01-17 19:23:00,
2013-01-17 14:33:00,41.0,39.0,-100.00,NNE,33,7.0,16.0,94,0.19,,,0.83,49.000000,,2013-01-17 19:33:00,
2013-01-17 14:43:00,41.0,39.0,-100.00,NNE,33,7.0,16.0,94,0.19,,,0.83,49.000000,,2013-01-17 19:43:00,
2013-01-17 14:53:00,41.0,39.0,-100.00,NNE,33,7.0,16.0,94,0.19,,,0.83,49.000000,,2013-01-17 19:53:00,
2013-01-17 15:03:00,41.0,39.0,-100.00,NNE,33,7.0,16.0,94,0.19,,,0.83,49.000000,,2013-01-17 20:03:00,
2013-01-17 16:04:00,39.0,37.0,-100.00,NNE,31,8.0,21.0,92,-99.99,,,1.21,8.000000,,2013-01-17 21:04:00,
2013-01-17 16:34:00,39.0,37.0,-100.00,NNE,31,8.0,21.0,92,-99.99,,,1.21,8.000000,,2013-01-17 21:34:00,
2013-01-17 16:43:00,39.0,37.0,-100.00,NNE,31,8.0,21.0,92,-99.99,,,1.21,8.000000,,2013-01-17 21:43:00,
2013-01-17 16:53:00,39.0,37.0,-100.00,NNE,31,8.0,21.0,92,-99.99,,,1.21,8.000000,,2013-01-17 21:53:00,
2013-01-17 17:23:00,39.0,37.0,-100.00,NNE,14,9.0,21.0,91,0.26,,,1.47,3.000000,,2013-01-17 22:23:00,
2013-01-17 17:33:00,39.0,37.0,-100.00,NNE,14,9.0,21.0,91,0.26,,,1.47,3.000000,,2013-01-17 22:33:00,
2013-01-17 17:43:00,39.0,37.0,-100.00,NNE,14,9.0,21.0,91,0.26,,,1.47,3.000000,,2013-01-17 22:43:00,
2013-01-17 17:53:00,39.0,37.0,-100.00,NNE,14,9.0,21.0,91,0.26,,,1.47,3.000000,,2013-01-17 22:53:00,
2013-01-17 18:03:00,39.0,37.0,-100.00,NNE,14,9.0,21.0,91,0.26,,,1.47,3.000000,,2013-01-17 23:03:00,
2013-01-17 18:33:00,37.0,34.0,-100.00,NNE,33,9.0,17.0,89,0.19,,,1.66,0.000000,,2013-01-17 23:33:00,
2013-01-17 18:43:00,37.0,34.0,-100.00,NNE,33,9.0,17.0,89,0.19,,,1.66,0.000000,,2013-01-17 23:43:00,
2013-01-17 18:53:00,37.0,34.0,-100.00,NNE,33,9.0,17.0,89,0.19,,,1.66,0.000000,,2013-01-17 23:53:00,
2013-01-17 19:03:00,37.0,34.0,-100.00,NNE,33,9.0,17.0,89,0.19,,,1.66,0.000000,,2013-01-18 00:03:00,
2013-01-17 19:23:00,35.0,33.0,-100.00,NNE,33,9.0,18.0,91,0.24,,,1.90,0.000000,,2013-01-18 00:23:00,
2013-01-17 19:33:00,35.0,33.0,-100.00,NNE,33,9.0,18.0,91,0.24,,,1.90,0.000000,,2013-01-18 00:33:00,
2013-01-17 19:43:00,35.0,33.0,-100.00,NNE,33,9.0,18.0,91,0.24,,,1.90,0.000000,,2013-01-18 00:43:00,
2013-01-17 19:53:00,35.0,33.0,-100.00,NNE,33,9.0,18.0,91,0.24,,,1.90,0.000000,,2013-01-18 00:53:00,
2013-01-17 20:03:00,35.0,33.0,-100.00,NNE,33,9.0,18.0,91,0.24,,,1.90,0.000000,,2013-01-18 01:03:00,
2013-01-17 20:33:00,33.0,32.0,-100.00,NNE,31,4.0,16.0,95,0.06,,,1.96,0.000000,,2013-01-18 01:33:00,
2013-01-17 20:43:00,33.0,32.0,-100.00,NNE,31,4.0,16.0,95,0.06,,,1.96,0.000000,,2013-01-18 01:43:00,
2013-01-17 20:53:00,33.0,32.0,-100.00,NNE,31,4.0,16.0,95,0.06,,,1.96,0.000000,,2013-01-18 01:53:00,
2013-01-17 21:03:00,33.0,32.0,-100.00,NNE,31,4.0,16.0,95,0.06,,,1.96,0.000000,,2013-01-18 02:03:00,
2013-01-17 21:33:00,33.0,32.0,-100.00,North,355,0.0,8.0,97,0.00,,,1.96,0.000000,,2013-01-18 02:33:00,
2013-01-17 21:43:00,33.0,32.0,-100.00,North,355,0.0,8.0,97,0.00,,,1.96,0.000000,,2013-01-18 02:43:00,
2013-01-17 21:53:00,33.0,32.0,-100.00,North,355,0.0,8.0,97,0.00,,,1.96,0.000000,,2013-01-18 02:53:00,
2013-01-17 22:02:00,33.0,32.0,-100.00,North,355,0.0,8.0,97,0.00,,,1.96,0.000000,,2013-01-18 03:02:00,
2013-01-17 22:33:00,33.0,32.0,-100.00,South,183,3.0,4.0,97,0.04,,,2.00,0.000000,,2013-01-18 03:33:00,
2013-01-17 22:43:00,33.0,32.0,-100.00,South,183,3.0,4.0,97,0.04,,,2.00,0.000000,,2013-01-18 03:43:00,
2013-01-17 22:53:00,33.0,32.0,-100.00,South,183,3.0,4.0,97,0.04,,,2.00,0.000000,,2013-01-18 03:53:00,
2013-01-17 23:02:00,33.0,32.0,-100.00,South,183,3.0,4.0,97,0.04,,,2.00,0.000000,,2013-01-18 04:02:00,
2013-01-17 23:33:00,33.0,32.0,-100.00,NW,324,0.0,3.0,98,0.02,,,2.00,0.000000,,2013-01-18 04:33:00,
2013-01-17 23:43:00,33.0,32.0,-100.00,NW,324,0.0,3.0,98,0.02,,,2.00,0.000000,,2013-01-18 04:43:00,
2013-01-17 23:53:00,33.0,32.0,-100.00,NW,324,0.0,3.0,98,0.02,,,2.00,0.000000,,2013-01-18 04:53:00,